Time;durP1;ratioP1;P1;durP2;ratioP2;P2;SDS_P1;SDS_P2;PMS_P1;PMS_P2;Temp;Humidity;BMP_temperature;BMP_pressure;BME280_temperature;BME280_humidity;BME280_pressure;Samples;Min_cycle;Max_cycle;Signal;HPM_P1;HPM_P2
2022/07/20 00:00:25;;;;;;;13.57;5.30;;;;;;;26.09;38.55;98101.63;8446234;28;20240;-74
2022/07/20 00:04:28;;;;;;;10.53;5.40;;;;;;;26.04;37.96;98095.97;8446988;28;20236;-74
2022/07/20 00:12:55;;;;;;;14.87;4.90;;;;;;;25.85;38.72;98091.75;8446855;28;20235;-73
2022/07/20 00:16:58;;;;;;;13.80;5.10;;;;;;;25.81;38.82;98098.38;8446223;28;20234;-73
2022/07/20 00:21:01;;;;;;;12.23;5.60;;;;;;;25.70;38.41;98096.88;8446962;28;20239;-73
2022/07/20 00:25:04;;;;;;;11.97;5.70;;;;;;;25.77;38.38;98098.88;8446606;28;20255;-73
2022/07/20 00:29:09;;;;;;;15.87;5.57;;;;;;;25.70;38.46;98094.22;8446919;28;20242;-73
2022/07/20 00:33:12;;;;;;;11.53;5.43;;;;;;;25.61;38.85;98089.88;8446509;28;20408;-73
2022/07/20 00:37:14;;;;;;;13.57;5.60;;;;;;;25.63;38.19;98092.38;8446872;28;20421;-73
2022/07/20 00:41:17;;;;;;;10.60;5.70;;;;;;;25.57;38.66;98091.19;8446433;28;20234;-74
2022/07/20 00:45:22;;;;;;;18.20;6.30;;;;;;;25.53;38.64;98090.66;8446570;28;20560;-73
2022/07/20 00:49:24;;;;;;;8.77;5.50;;;;;;;25.50;38.95;98088.31;8445700;28;20235;-73
2022/07/20 00:53:27;;;;;;;11.50;5.73;;;;;;;25.46;38.52;98088.81;8446214;28;20256;-74
2022/07/20 00:57:32;;;;;;;12.27;5.33;;;;;;;25.48;38.33;98081.53;8448078;28;20223;-73
2022/07/20 01:01:36;;;;;;;10.10;5.37;;;;;;;25.45;38.85;98081.84;8452532;28;20235;-74
2022/07/20 01:05:39;;;;;;;12.53;5.30;;;;;;;25.35;39.13;98077.50;8452985;28;20295;-73
2022/07/20 01:09:42;;;;;;;14.37;5.53;;;;;;;25.26;39.51;98081.09;8452477;28;20318;-73
2022/07/20 01:13:45;;;;;;;12.77;5.43;;;;;;;25.22;39.70;98077.06;8452605;28;20230;-74
2022/07/20 01:17:50;;;;;;;6.60;5.03;;;;;;;25.17;39.66;98077.56;8452215;28;20227;-73
2022/07/20 01:21:54;;;;;;;15.03;5.43;;;;;;;25.08;39.68;98089.09;8452063;28;20229;-73
2022/07/20 01:25:57;;;;;;;10.50;5.40;;;;;;;25.09;39.92;98088.13;8452390;28;20244;-73
2022/07/20 01:30:00;;;;;;;13.77;5.67;;;;;;;25.03;40.39;98088.72;8451882;28;20297;-73
2022/07/20 01:34:03;;;;;;;15.43;5.43;;;;;;;25.05;40.39;98084.09;8451556;28;20251;-73
2022/07/20 01:38:08;;;;;;;9.97;5.17;;;;;;;25.02;39.97;98076.50;8451871;28;20235;-73
2022/07/20 01:42:10;;;;;;;11.90;5.30;;;;;;;24.93;40.37;98080.06;8451114;28;20235;-73
2022/07/20 01:46:13;;;;;;;9.67;5.17;;;;;;;24.91;39.99;98068.81;8451043;28;20506;-74
2022/07/20 01:50:16;;;;;;;11.63;5.20;;;;;;;24.88;40.26;98069.94;8450880;28;20225;-74
2022/07/20 01:54:21;;;;;;;13.87;5.23;;;;;;;24.84;40.73;98065.13;8451148;28;20229;-73
2022/07/20 01:58:24;;;;;;;9.57;5.30;;;;;;;24.85;40.22;98070.25;8450830;28;20230;-73
2022/07/20 02:02:27;;;;;;;9.80;5.13;;;;;;;24.77;40.32;98070.22;8450730;28;20241;-73
2022/07/20 02:06:30;;;;;;;7.67;5.20;;;;;;;24.64;40.56;98062.69;8450715;28;20234;-73
2022/07/20 02:10:34;;;;;;;9.27;5.27;;;;;;;24.62;40.31;98071.75;8448786;28;20234;-74
2022/07/20 02:14:37;;;;;;;9.43;4.77;;;;;;;24.54;40.63;98075.16;8450652;28;20419;-73
2022/07/20 02:18:40;;;;;;;8.63;5.50;;;;;;;24.47;40.77;98077.56;8450603;28;20532;-74
2022/07/20 02:22:43;;;;;;;12.07;5.80;;;;;;;24.43;40.94;98081.50;8450015;28;20226;-74
2022/07/20 02:26:47;;;;;;;11.77;5.83;;;;;;;24.28;41.47;98081.22;8450051;28;20524;-73
2022/07/20 02:30:50;;;;;;;8.70;5.23;;;;;;;24.29;41.41;98077.56;8457890;28;20544;-73
2022/07/20 02:34:53;;;;;;;11.93;5.73;;;;;;;24.20;41.60;98070.56;8449412;28;20275;-73
2022/07/20 02:38:56;;;;;;;12.70;5.80;;;;;;;24.14;41.74;98072.00;8449717;28;20234;-73
2022/07/20 02:43:01;;;;;;;7.90;4.80;;;;;;;24.11;41.73;98064.38;8449665;28;20587;-73
2022/07/20 02:47:04;;;;;;;9.57;5.40;;;;;;;24.03;41.64;98064.28;8449243;28;20234;-73
2022/07/20 02:51:07;;;;;;;9.13;6.30;;;;;;;23.95;41.34;98065.06;8449221;28;20249;-74
2022/07/20 02:55:10;;;;;;;10.63;6.30;;;;;;;23.87;41.29;98061.47;8448548;28;20233;-73
2022/07/20 02:59:15;;;;;;;12.87;6.57;;;;;;;23.79;41.47;98064.88;8448485;28;20225;-73
2022/07/20 03:03:18;;;;;;;14.83;6.70;;;;;;;23.87;41.29;98072.88;8448584;28;20312;-73
2022/07/20 03:07:21;;;;;;;12.07;6.37;;;;;;;23.77;41.54;98059.69;8449017;28;20225;-74
2022/07/20 03:11:24;;;;;;;11.77;6.07;;;;;;;23.81;41.64;98068.19;8448121;28;20233;-73
2022/07/20 03:15:28;;;;;;;11.67;6.50;;;;;;;23.77;42.15;98069.44;8448715;28;20423;-73
2022/07/20 03:19:31;;;;;;;11.07;6.70;;;;;;;23.59;42.08;98058.84;8448547;28;20222;-73
2022/07/20 03:23:34;;;;;;;11.33;6.30;;;;;;;23.65;42.08;98066.19;8447500;28;20246;-73
2022/07/20 03:27:37;;;;;;;9.63;6.00;;;;;;;23.54;42.49;98074.31;8448201;28;20245;-74
2022/07/20 03:31:41;;;;;;;7.10;5.80;;;;;;;23.49;42.62;98079.22;8447718;28;20551;-73
2022/07/20 03:35:44;;;;;;;14.70;6.67;;;;;;;23.42;42.18;98077.16;8448086;28;20233;-73
2022/07/20 03:39:47;;;;;;;13.67;6.20;;;;;;;23.39;42.53;98071.34;8464204;28;20230;-73
2022/07/20 03:43:50;;;;;;;16.83;6.30;;;;;;;23.34;42.74;98077.06;8447756;28;20431;-73
2022/07/20 03:47:54;;;;;;;13.53;6.23;;;;;;;23.35;42.63;98081.34;8447007;28;20296;-73
2022/07/20 03:51:57;;;;;;;14.50;6.23;;;;;;;23.31;42.83;98085.28;8447433;28;20288;-74
2022/07/20 03:56:00;;;;;;;11.23;6.23;;;;;;;23.34;42.86;98086.78;8446959;28;20237;-73
2022/07/20 04:00:04;;;;;;;15.60;6.43;;;;;;;23.31;42.67;98079.16;8447148;28;20236;-73
2022/07/20 04:04:09;;;;;;;11.80;7.10;;;;;;;23.25;42.90;98083.22;8446907;28;20241;-73
2022/07/20 04:08:11;;;;;;;10.30;6.20;;;;;;;23.25;42.60;98079.72;8447192;28;20244;-73
2022/07/20 04:12:17;;;;;;;12.53;6.97;;;;;;;23.16;42.91;98089.38;8446904;28;20419;-73
2022/07/20 04:16:20;;;;;;;10.13;6.30;;;;;;;23.15;42.84;98079.78;8447122;28;20236;-73
2022/07/20 04:20:25;;;;;;;14.53;7.23;;;;;;;23.14;43.06;98083.41;8446667;28;20263;-75
2022/07/20 04:24:28;;;;;;;14.87;6.93;;;;;;;23.19;42.75;98083.81;8446304;28;20222;-75
2022/07/20 04:28:31;;;;;;;17.67;7.17;;;;;;;23.23;42.85;98090.47;8446589;28;20233;-75
2022/07/20 04:32:33;;;;;;;13.10;6.70;;;;;;;23.19;43.13;98091.72;8448590;28;20237;-75
2022/07/20 04:36:38;;;;;;;17.13;6.70;;;;;;;23.26;42.94;98100.72;8453766;28;20423;-75
2022/07/20 04:40:40;;;;;;;13.90;7.10;;;;;;;23.23;42.93;98096.56;8453494;28;20241;-76
2022/07/20 04:44:43;;;;;;;12.00;7.10;;;;;;;23.22;43.24;98102.81;8453411;28;20222;-76
2022/07/20 04:48:46;;;;;;;16.97;7.43;;;;;;;23.22;43.29;98100.19;8453222;28;20226;-76
2022/07/20 04:52:51;;;;;;;11.43;6.90;;;;;;;23.30;43.23;98099.44;8478503;28;20242;-74
2022/07/20 04:56:54;;;;;;;15.47;6.37;;;;;;;23.40;43.49;98102.91;8486992;28;20416;-75
2022/07/20 05:00:56;;;;;;;16.03;6.97;;;;;;;23.38;43.29;98098.72;8485290;28;20232;-75
2022/07/20 05:04:59;;;;;;;15.27;6.20;;;;;;;23.51;43.27;98093.94;8452393;28;20234;-75
2022/07/20 05:09:07;;;;;;;9.50;6.43;;;;;;;23.64;43.11;98088.31;8451337;28;20233;-76
2022/07/20 05:13:10;;;;;;;12.90;5.00;;;;;;;23.75;41.49;98097.84;8452951;28;20237;-75
2022/07/20 05:17:12;;;;;;;10.43;4.80;;;;;;;23.89;40.70;98099.19;8452547;28;20222;-76
2022/07/20 05:21:15;;;;;;;12.83;5.00;;;;;;;24.07;40.89;98102.69;8452453;28;20233;-75
2022/07/20 05:25:20;;;;;;;10.30;4.47;;;;;;;24.16;40.88;98100.94;8452520;28;20225;-74
2022/07/20 05:29:31;;;;;;;8.17;4.43;;;;;;;24.39;40.69;98106.63;8451007;28;20222;-76
2022/07/20 05:33:33;;;;;;;9.80;4.87;;;;;;;24.57;40.74;98107.44;8452223;28;20230;-77
2022/07/20 05:37:36;;;;;;;13.40;4.73;;;;;;;24.74;40.38;98099.66;8452072;28;20238;-75
2022/07/20 05:41:40;;;;;;;7.53;4.17;;;;;;;25.04;40.68;98095.69;8451227;28;20239;-75
2022/07/20 05:45:43;;;;;;;8.83;4.70;;;;;;;25.02;40.25;98094.19;8450381;28;20416;-75
2022/07/20 05:49:49;;;;;;;10.53;4.53;;;;;;;25.21;39.58;98087.81;8467717;28;20229;-74
2022/07/20 05:53:51;;;;;;;9.57;4.50;;;;;;;25.20;39.23;98096.78;8451221;28;20230;-74
2022/07/20 05:57:56;;;;;;;11.77;4.60;;;;;;;25.38;39.00;98092.28;8451477;28;20536;-74
2022/07/20 06:01:59;;;;;;;13.73;4.47;;;;;;;25.33;37.48;98098.03;8450733;28;20239;-74
2022/07/20 06:06:01;;;;;;;9.87;4.30;;;;;;;25.74;38.26;98097.34;8451008;28;20228;-74
2022/07/20 06:10:06;;;;;;;11.93;4.30;;;;;;;25.87;36.94;98095.06;8450975;28;20437;-75
2022/07/20 06:14:10;;;;;;;9.70;4.30;;;;;;;25.88;36.18;98098.56;8450664;28;20289;-75
2022/07/20 06:18:13;;;;;;;14.43;4.50;;;;;;;25.89;36.93;98101.06;8450731;28;20229;-75
2022/07/20 06:22:23;;;;;;;13.77;4.30;;;;;;;25.85;36.27;98098.88;8450205;28;20234;-76
2022/07/20 06:26:26;;;;;;;14.20;3.90;;;;;;;25.97;35.19;98097.63;8450339;28;20234;-75
2022/07/20 06:30:30;;;;;;;7.33;3.90;;;;;;;26.16;35.68;98095.66;8450200;28;20426;-74
2022/07/20 06:34:33;;;;;;;8.73;4.00;;;;;;;26.29;35.14;98090.69;8450220;28;20549;-73
2022/07/20 06:38:36;;;;;;;9.83;4.20;;;;;;;26.28;36.41;98097.81;8450037;28;20510;-74
2022/07/20 06:42:39;;;;;;;10.83;3.87;;;;;;;26.58;35.63;98086.69;8449599;28;20234;-73
2022/07/20 06:46:43;;;;;;;7.77;3.60;;;;;;;26.59;34.01;98089.22;8449770;28;20231;-73
2022/07/20 06:50:46;;;;;;;9.17;3.93;;;;;;;26.83;35.03;98084.91;8449647;28;20225;-73
2022/07/20 06:54:49;;;;;;;13.03;4.20;;;;;;;27.19;33.78;98073.81;8448834;28;20237;-73
2022/07/20 06:58:52;;;;;;;9.17;3.70;;;;;;;27.21;33.26;98071.84;8449166;28;20236;-73
2022/07/20 07:02:57;;;;;;;9.50;4.23;;;;;;;27.50;32.91;98085.38;8448967;28;20241;-73
2022/07/20 07:07:02;;;;;;;6.53;4.10;;;;;;;27.76;33.11;98081.63;8449031;28;20280;-74
2022/07/20 07:11:05;;;;;;;8.87;3.47;;;;;;;27.97;32.68;98075.69;8449002;28;20236;-74
2022/07/20 07:15:09;;;;;;;8.13;4.00;;;;;;;28.11;32.99;98074.09;8448673;28;20232;-75
2022/07/20 07:19:13;;;;;;;12.70;3.87;;;;;;;28.31;32.75;98077.13;8448762;28;20231;-73
2022/07/20 07:23:16;;;;;;;10.47;4.20;;;;;;;28.39;31.43;98084.22;8448664;28;20230;-74
2022/07/20 07:27:18;;;;;;;11.40;3.67;;;;;;;28.69;31.87;98074.47;8448569;28;20229;-74
2022/07/20 07:31:21;;;;;;;11.47;3.90;;;;;;;28.54;31.03;98076.28;8448330;28;20229;-74
2022/07/20 07:35:25;;;;;;;9.10;4.47;;;;;;;28.62;30.77;98085.03;8448095;28;20589;-74
2022/07/20 07:39:28;;;;;;;5.40;3.63;;;;;;;29.02;30.67;98079.50;8448171;28;20413;-74
2022/07/20 07:43:31;;;;;;;8.20;3.83;;;;;;;29.01;29.05;98070.66;8447682;28;20561;-74
2022/07/20 07:47:36;;;;;;;8.63;3.77;;;;;;;29.09;30.00;98071.56;8447653;28;20528;-74
2022/07/20 07:51:40;;;;;;;8.97;4.00;;;;;;;29.32;29.39;98077.69;8447565;28;20232;-74
2022/07/20 07:55:43;;;;;;;9.53;4.07;;;;;;;29.33;29.26;98071.31;8447445;28;20230;-74
2022/07/20 07:59:46;;;;;;;10.93;3.80;;;;;;;29.59;29.23;98070.03;8447419;28;20243;-73
2022/07/20 08:03:49;;;;;;;5.87;3.53;;;;;;;30.12;28.57;98070.63;8446652;28;20255;-74
2022/07/20 08:07:53;;;;;;;13.93;3.77;;;;;;;30.06;28.46;98059.88;8446462;28;20233;-75
2022/07/20 08:11:56;;;;;;;6.93;3.43;;;;;;;30.40;28.14;98068.00;8447448;28;20236;-75
2022/07/20 08:15:59;;;;;;;13.33;4.23;;;;;;;30.69;27.81;98060.00;8446950;28;20264;-74
2022/07/20 08:20:02;;;;;;;12.33;3.87;;;;;;;30.45;27.13;98061.28;8446971;28;20270;-74
2022/07/20 08:24:07;;;;;;;8.33;3.70;;;;;;;30.96;27.17;98050.38;8446945;28;20237;-74
2022/07/20 08:28:12;;;;;;;10.77;3.87;;;;;;;31.01;26.30;98053.28;8447052;28;20231;-74
2022/07/20 08:32:15;;;;;;;7.23;3.70;;;;;;;30.93;26.73;98048.91;8446800;28;20241;-73
2022/07/20 08:36:18;;;;;;;7.63;3.40;;;;;;;31.46;26.13;98042.19;8446945;28;20237;-74
2022/07/20 08:40:22;;;;;;;9.07;3.90;;;;;;;31.88;25.91;98046.44;8446785;28;20223;-74
2022/07/20 08:44:25;;;;;;;13.77;3.53;;;;;;;32.12;25.68;98049.59;8446694;28;20523;-74
2022/07/20 08:48:28;;;;;;;10.17;3.87;;;;;;;32.27;25.22;98052.09;8446566;28;20420;-73
2022/07/20 08:52:31;;;;;;;9.60;3.37;;;;;;;32.41;24.60;98051.06;8446778;28;20457;-74
2022/07/20 08:56:35;;;;;;;7.33;3.30;;;;;;;32.48;24.57;98051.91;8446791;28;20227;-74
2022/07/20 09:00:38;;;;;;;6.23;3.20;;;;;;;32.54;25.71;98044.91;8446634;28;20227;-75
2022/07/20 09:04:53;;;;;;;9.30;3.40;;;;;;;32.96;24.54;98041.94;8445942;28;20230;-74
2022/07/20 09:09:04;;;;;;;7.87;3.33;;;;;;;32.80;24.17;98046.72;8445557;28;20236;-74
2022/07/20 09:13:12;;;;;;;11.90;3.70;;;;;;;32.98;23.82;98038.06;8446254;28;20621;-74
2022/07/20 09:17:17;;;;;;;10.23;3.40;;;;;;;33.29;23.65;98029.28;8446267;28;20450;-74
2022/07/20 09:21:28;;;;;;;15.20;3.57;;;;;;;33.76;23.50;98034.47;8452363;28;20222;-73
2022/07/20 09:25:32;;;;;;;9.30;3.43;;;;;;;33.92;23.25;98030.44;8452325;28;20235;-74
2022/07/20 09:29:36;;;;;;;11.57;3.40;;;;;;;34.14;22.39;98030.09;8452337;28;20233;-74
2022/07/20 09:33:40;;;;;;;8.57;3.10;;;;;;;34.62;23.15;98027.66;8452080;28;20237;-74
2022/07/20 09:37:43;;;;;;;8.87;3.23;;;;;;;34.42;22.57;98027.84;8452051;28;20239;-73
2022/07/20 09:41:51;;;;;;;7.63;3.17;;;;;;;34.27;21.67;98009.34;8451816;28;20227;-73
2022/07/20 09:45:56;;;;;;;7.67;3.20;;;;;;;34.35;21.54;98013.63;8442192;28;20516;-73
2022/07/20 09:50:01;;;;;;;6.30;3.30;;;;;;;34.45;21.79;98013.94;8451071;28;20241;-73
2022/07/20 09:54:06;;;;;;;10.33;3.30;;;;;;;35.05;20.81;98018.75;8451646;28;20231;-74
2022/07/20 09:58:10;;;;;;;9.75;3.42;;;;;;;34.95;21.20;98010.38;8451520;28;20236;-73
2022/07/20 10:02:15;;;;;;;7.20;3.50;;;;;;;35.04;21.08;98008.22;8451026;28;20523;-73
2022/07/20 10:06:19;;;;;;;7.10;3.10;;;;;;;35.22;21.02;98007.41;8451190;28;20229;-73
2022/07/20 10:10:23;;;;;;;4.75;2.90;;;;;;;35.91;21.75;98005.25;8459250;28;20471;-73
2022/07/20 10:14:26;;;;;;;7.35;3.30;;;;;;;35.61;20.74;98008.75;8460501;28;20236;-73
2022/07/20 10:18:31;;;;;;;6.55;3.00;;;;;;;36.05;20.48;98002.38;8450719;28;20232;-73
2022/07/20 10:22:34;;;;;;;8.35;3.05;;;;;;;36.11;19.49;98010.31;8450635;28;20244;-73
2022/07/20 10:26:37;;;;;;;11.43;3.25;;;;;;;36.31;19.25;98003.81;8450534;28;20233;-73
2022/07/20 10:30:52;;;;;;;8.80;3.30;;;;;;;36.40;19.17;97997.03;8450238;28;20437;-73
2022/07/20 10:34:57;;;;;;;5.82;2.88;;;;;;;36.11;19.06;97996.84;8441304;28;20226;-72
2022/07/20 10:39:34;;;;;;;5.10;3.10;;;;;;;36.42;18.77;97988.72;8450063;28;20229;-73
2022/07/20 10:43:37;;;;;;;5.38;2.88;;;;;;;36.38;18.98;97989.16;8449732;28;20423;-73
2022/07/20 10:47:42;;;;;;;8.80;3.20;;;;;;;36.56;19.11;97985.53;8449508;28;20232;-73
2022/07/20 10:52:26;;;;;;;6.22;3.13;;;;;;;36.98;18.92;97974.59;8449647;28;20305;-73
2022/07/20 10:56:30;;;;;;;4.93;2.92;;;;;;;36.68;19.11;97971.25;8449286;28;20409;-74
2022/07/20 11:00:34;;;;;;;6.38;3.28;;;;;;;37.44;18.77;97979.31;8440831;28;20415;-72
2022/07/20 11:04:43;;;;;;;8.43;3.47;;;;;;;36.65;18.16;97969.00;8448098;28;20226;-71
2022/07/20 11:08:51;;;;;;;9.43;3.17;;;;;;;36.78;18.87;97966.91;8449125;28;20230;-74
2022/07/20 11:12:56;;;;;;;8.52;3.15;;;;;;;36.20;18.55;97963.16;8414815;28;20231;-73
2022/07/20 11:16:59;;;;;;;7.32;3.35;;;;;;;36.04;19.37;97962.97;8415449;28;20293;-74
2022/07/20 11:21:06;;;;;;;8.43;3.30;;;;;;;37.22;18.68;97949.44;8414916;28;20241;-73
2022/07/20 11:25:10;;;;;;;11.15;3.58;;;;;;;37.07;18.89;97939.13;8415072;28;20404;-73
2022/07/20 11:29:14;;;;;;;8.18;3.22;;;;;;;37.19;18.08;97944.53;8415021;28;20228;-73
2022/07/20 11:33:28;;;;;;;6.05;3.40;;;;;;;37.70;17.66;97937.38;8414725;28;20234;-73
2022/07/20 11:37:31;;;;;;;6.57;2.97;;;;;;;38.08;18.42;97930.44;8442622;28;20251;-73
2022/07/20 11:41:38;;;;;;;7.35;3.30;;;;;;;37.49;18.09;97928.91;8446876;28;20222;-74
2022/07/20 11:45:41;;;;;;;6.68;3.35;;;;;;;37.81;17.63;97928.38;8447442;28;20226;-74
2022/07/20 11:49:44;;;;;;;6.32;3.50;;;;;;;37.86;17.00;97914.16;8447306;28;20222;-75
2022/07/20 11:53:47;;;;;;;8.20;3.08;;;;;;;37.89;17.43;97919.88;8447008;28;20233;-74
2022/07/20 11:57:56;;;;;;;7.65;3.20;;;;;;;38.28;18.32;97914.53;8444864;28;20226;-75
2022/07/20 12:01:59;;;;;;;7.53;3.50;;;;;;;38.28;17.24;97917.25;8447238;28;20225;-75
2022/07/20 12:06:07;;;;;;;9.23;3.22;;;;;;;37.89;16.88;97914.47;8447656;28;20234;-76
2022/07/20 12:10:11;;;;;;;5.63;3.28;;;;;;;37.81;17.01;97922.16;8447623;28;20232;-74
2022/07/20 12:14:26;;;;;;;6.18;2.90;;;;;;;37.88;17.27;97915.53;8447518;28;20236;-74
2022/07/20 12:18:51;;;;;;;8.70;3.10;;;;;;;38.10;17.14;97912.13;8463603;28;20549;-74
2022/07/20 12:22:57;;;;;;;6.10;3.15;;;;;;;38.22;16.44;97904.72;8447416;28;20275;-75
2022/07/20 12:27:04;;;;;;;4.72;2.67;;;;;;;38.33;17.40;97894.88;8447127;28;20236;-74
2022/07/20 12:31:13;;;;;;;6.65;3.00;;;;;;;38.69;17.22;97885.38;8447362;28;20248;-76
2022/07/20 12:35:24;;;;;;;8.45;3.40;;;;;;;38.70;17.99;97869.94;8447129;28;20234;-74
2022/07/20 12:39:38;;;;;;;3.78;3.08;;;;;;;38.59;16.94;97866.28;8446984;28;20222;-73
2022/07/20 12:43:42;;;;;;;6.18;2.85;;;;;;;38.64;17.19;97863.66;8446914;28;20238;-73
2022/07/20 12:47:46;;;;;;;4.38;3.25;;;;;;;38.61;16.44;97866.84;8446846;28;20226;-74
2022/07/20 12:52:08;;;;;;;7.72;2.83;;;;;;;38.68;15.60;97851.25;8446675;28;20222;-73
2022/07/20 12:56:12;;;;;;;5.22;2.70;;;;;;;38.79;16.06;97856.78;8453032;28;20222;-75
2022/07/20 13:00:15;;;;;;;6.07;2.80;;;;;;;38.87;15.96;97859.84;8453481;28;20225;-74
2022/07/20 13:04:20;;;;;;;4.95;2.75;;;;;;;39.02;16.34;97855.72;8452801;28;20230;-74
2022/07/20 13:08:24;;;;;;;6.65;2.92;;;;;;;38.82;16.37;97845.44;8453168;28;20237;-73
2022/07/20 13:12:29;;;;;;;10.18;3.35;;;;;;;38.41;15.80;97844.94;8453095;28;20237;-73
2022/07/20 13:16:33;;;;;;;4.28;2.75;;;;;;;38.52;14.92;97841.31;8452965;28;20225;-73
2022/07/20 13:20:38;;;;;;;5.63;2.70;;;;;;;38.69;15.63;97831.25;8452804;28;20447;-73
2022/07/20 13:24:41;;;;;;;8.02;2.78;;;;;;;38.05;15.12;97830.91;8452616;28;20238;-73
2022/07/20 13:28:44;;;;;;;4.85;2.78;;;;;;;38.25;14.85;97824.97;8452732;28;20248;-71
2022/07/20 13:32:47;;;;;;;5.70;2.55;;;;;;;38.38;15.56;97824.63;8452579;28;20238;-73
2022/07/20 13:36:51;;;;;;;8.25;3.03;;;;;;;38.44;15.76;97818.22;8451787;28;20225;-73
2022/07/20 13:40:55;;;;;;;6.60;2.65;;;;;;;38.58;14.61;97815.97;8452130;28;20429;-73
2022/07/20 13:44:58;;;;;;;3.42;2.63;;;;;;;38.74;15.15;97810.72;8450457;28;20515;-73
2022/07/20 13:49:03;;;;;;;7.15;2.72;;;;;;;38.49;14.49;97806.63;8450469;28;20222;-73
2022/07/20 13:53:07;;;;;;;7.18;2.75;;;;;;;38.19;14.35;97809.78;8450158;28;20574;-73
2022/07/20 13:57:10;;;;;;;7.07;2.47;;;;;;;38.05;13.24;97809.28;8451292;28;20237;-74
2022/07/20 14:01:13;;;;;;;7.38;2.70;;;;;;;38.11;14.14;97811.03;8451276;28;20222;-73
2022/07/20 14:05:16;;;;;;;10.48;3.00;;;;;;;38.27;13.56;97812.03;8450307;28;20237;-73
2022/07/20 14:09:20;;;;;;;6.88;3.00;;;;;;;38.18;14.73;97810.84;8451459;28;20396;-73
2022/07/20 14:13:24;;;;;;;6.90;2.80;;;;;;;38.01;15.97;97808.97;8451304;28;20230;-73
2022/07/20 14:17:27;;;;;;;6.57;2.85;;;;;;;38.37;15.69;97800.56;8451228;28;20253;-73
2022/07/20 14:21:30;;;;;;;6.97;2.97;;;;;;;38.38;15.10;97802.16;8451073;28;20222;-74
2022/07/20 14:25:37;;;;;;;7.68;3.03;;;;;;;38.58;15.32;97799.75;8450716;28;20259;-74
2022/07/20 14:29:40;;;;;;;7.10;2.58;;;;;;;38.69;15.84;97801.50;8450164;28;20224;-74
2022/07/20 14:33:42;;;;;;;7.30;2.78;;;;;;;38.72;16.02;97803.66;8450550;28;20222;-74
2022/07/20 14:37:46;;;;;;;5.85;3.10;;;;;;;38.66;16.08;97798.47;8450216;28;20225;-74
2022/07/20 14:41:51;;;;;;;8.25;2.97;;;;;;;38.63;16.34;97786.28;8466924;28;20540;-73
2022/07/20 14:45:54;;;;;;;5.95;2.50;;;;;;;38.44;15.13;97788.47;8435950;28;20231;-73
2022/07/20 14:49:57;;;;;;;10.20;2.65;;;;;;;38.51;15.81;97790.97;8456809;28;20579;-74
2022/07/20 14:54:00;;;;;;;5.40;2.88;;;;;;;38.24;14.72;97790.91;8457589;28;20226;-74
2022/07/20 14:58:04;;;;;;;4.45;2.63;;;;;;;38.08;15.38;97779.06;8457453;28;20230;-74
2022/07/20 15:02:07;;;;;;;4.47;3.08;;;;;;;38.08;15.72;97779.91;8454724;28;20238;-74
2022/07/20 15:06:10;;;;;;;5.93;2.70;;;;;;;38.01;15.38;97773.84;8457352;28;20545;-74
2022/07/20 15:10:13;;;;;;;6.22;2.90;;;;;;;38.05;15.98;97771.47;8460974;28;20233;-74
2022/07/20 15:14:18;;;;;;;6.53;2.75;;;;;;;38.03;16.04;97754.69;8466228;28;20232;-74
2022/07/20 15:18:22;;;;;;;4.78;2.80;;;;;;;37.91;16.04;97750.19;8465983;28;20507;-74
2022/07/20 15:22:24;;;;;;;4.22;2.80;;;;;;;37.83;15.72;97752.50;8465982;28;20229;-74
2022/07/20 15:26:27;;;;;;;5.07;2.78;;;;;;;37.58;15.89;97742.13;8465456;28;20524;-74
2022/07/20 15:30:32;;;;;;;6.03;3.10;;;;;;;37.23;15.62;97732.44;8450563;28;20289;-74
2022/07/20 15:34:35;;;;;;;8.75;2.95;;;;;;;37.31;16.15;97734.72;8448560;28;20240;-74
2022/07/20 15:38:38;;;;;;;6.07;3.30;;;;;;;37.25;15.54;97719.50;8456265;28;20236;-73
2022/07/20 15:42:41;;;;;;;6.72;3.00;;;;;;;37.20;15.86;97724.81;8457182;28;20221;-74
2022/07/20 15:46:45;;;;;;;6.20;2.97;;;;;;;37.13;15.58;97717.72;8448160;28;20222;-74
2022/07/20 15:50:48;;;;;;;3.60;2.78;;;;;;;37.22;16.36;97715.41;8430295;28;20226;-73
2022/07/20 15:54:51;;;;;;;7.40;2.92;;;;;;;37.13;16.63;97711.47;8447916;28;20226;-73
2022/07/20 15:58:54;;;;;;;7.70;2.80;;;;;;;37.06;16.29;97708.13;8447918;28;20241;-74
2022/07/20 16:02:59;;;;;;;6.05;3.40;;;;;;;36.89;16.49;97702.72;8447990;28;20245;-73
2022/07/20 16:07:02;;;;;;;9.23;3.15;;;;;;;36.71;16.68;97692.94;8445819;28;20420;-74
2022/07/20 16:11:07;;;;;;;6.72;2.88;;;;;;;36.70;16.13;97692.13;8447609;28;20230;-74
2022/07/20 16:15:10;;;;;;;8.00;3.20;;;;;;;36.73;16.41;97691.66;8447509;28;20229;-73
2022/07/20 16:19:14;;;;;;;6.97;2.88;;;;;;;36.78;16.35;97689.06;8447705;28;20226;-73
2022/07/20 16:23:17;;;;;;;4.88;2.83;;;;;;;36.65;16.55;97686.63;8447340;28;20226;-74
2022/07/20 16:27:20;;;;;;;7.50;2.90;;;;;;;36.57;16.57;97684.31;8444798;28;20234;-73
2022/07/20 16:31:25;;;;;;;5.95;3.05;;;;;;;36.57;17.20;97687.00;8446458;28;20312;-73
2022/07/20 16:35:29;;;;;;;7.85;2.88;;;;;;;36.42;16.32;97684.84;8446934;28;20226;-72
2022/07/20 16:39:32;;;;;;;7.50;2.72;;;;;;;36.38;16.13;97676.44;8447400;28;20226;-73
2022/07/20 16:43:35;;;;;;;6.10;2.90;;;;;;;36.26;16.39;97683.75;8446764;28;20230;-73
2022/07/20 16:47:38;;;;;;;5.63;3.08;;;;;;;36.20;16.58;97676.63;8446911;28;20226;-73
2022/07/20 16:51:43;;;;;;;6.85;2.95;;;;;;;36.19;16.52;97681.22;8446802;28;20539;-73
2022/07/20 16:55:45;;;;;;;9.63;3.00;;;;;;;36.04;17.62;97675.47;8447046;28;20244;-73
2022/07/20 16:59:49;;;;;;;5.20;3.20;;;;;;;36.03;17.45;97675.75;8446399;28;20233;-73
2022/07/20 17:03:51;;;;;;;4.22;2.45;;;;;;;35.93;17.54;97677.16;8446311;28;20237;-72
2022/07/20 17:07:56;;;;;;;3.85;2.47;;;;;;;35.79;17.27;97671.22;8446271;28;20301;-72
2022/07/20 17:11:59;;;;;;;4.38;2.63;;;;;;;35.73;16.93;97672.16;8446243;28;20226;-73
2022/07/20 17:16:02;;;;;;;3.60;2.53;;;;;;;35.54;17.10;97662.56;8446493;28;20417;-72
2022/07/20 17:20:07;;;;;;;4.28;2.50;;;;;;;35.39;16.90;97660.34;8446537;28;20237;-74
2022/07/20 17:24:11;;;;;;;5.22;2.53;;;;;;;35.30;17.17;97664.44;8446277;28;20225;-74
2022/07/20 17:28:13;;;;;;;5.50;2.28;;;;;;;35.21;17.46;97667.50;8444344;28;20406;-74
2022/07/20 17:32:16;;;;;;;3.83;2.55;;;;;;;35.12;17.50;97660.00;8446420;28;20245;-71
2022/07/20 17:36:19;;;;;;;3.75;2.03;;;;;;;35.00;17.61;97659.97;8446354;28;20241;-72
2022/07/20 17:40:25;;;;;;;3.90;2.50;;;;;;;34.93;17.96;97656.56;8447638;28;20233;-74
2022/07/20 17:44:28;;;;;;;5.13;2.30;;;;;;;34.84;18.21;97658.78;8452156;28;20229;-74
2022/07/20 17:48:31;;;;;;;3.88;2.70;;;;;;;34.69;18.55;97659.25;8451952;28;20240;-74
2022/07/20 17:52:34;;;;;;;6.10;2.40;;;;;;;34.67;18.31;97664.00;8451964;28;20298;-84
2022/07/20 17:56:40;;;;;;;5.85;2.30;;;;;;;34.61;18.84;97660.34;8451983;28;20244;-76
2022/07/20 18:00:43;;;;;;;4.18;2.45;;;;;;;34.55;19.34;97666.63;8451876;28;20292;-76
2022/07/20 18:04:46;;;;;;;4.53;2.45;;;;;;;34.42;20.22;97659.59;8451198;28;20281;-76
2022/07/20 18:08:49;;;;;;;4.95;2.45;;;;;;;34.31;21.80;97665.75;8445685;28;20336;-74
2022/07/20 18:12:53;;;;;;;6.32;2.28;;;;;;;34.21;21.67;97654.72;8451290;28;20536;-75
2022/07/20 18:17:16;;;;;;;2.93;2.20;;;;;;;34.12;20.97;97642.63;8451198;28;20232;-75
2022/07/20 18:21:22;;;;;;;5.13;2.23;;;;;;;33.97;22.11;97637.66;8451426;28;20517;-76
2022/07/20 18:25:25;;;;;;;4.77;2.30;;;;;;;33.79;22.61;97646.53;8451073;28;20233;-75
2022/07/20 18:29:29;;;;;;;5.63;3.00;;;;;;;33.67;22.61;97641.91;8439734;28;20232;-76
2022/07/20 18:33:32;;;;;;;7.57;2.67;;;;;;;33.52;23.17;97643.31;8417178;28;20253;-76
2022/07/20 18:37:35;;;;;;;6.40;3.57;;;;;;;33.34;23.33;97641.44;8417197;28;20237;-75
2022/07/20 18:41:38;;;;;;;8.50;3.87;;;;;;;33.21;23.36;97648.56;8417265;28;20511;-76
2022/07/20 18:46:02;;;;;;;9.93;4.20;;;;;;;33.15;23.56;97649.47;8416707;28;20245;-76
2022/07/20 18:50:09;;;;;;;9.00;4.30;;;;;;;32.98;23.69;97661.75;8421553;28;20219;-76
2022/07/20 18:54:12;;;;;;;9.57;4.63;;;;;;;32.88;24.06;97663.06;8416241;28;20224;-76
2022/07/20 18:58:15;;;;;;;7.70;4.73;;;;;;;32.82;24.72;97669.28;8416513;28;20232;-76
2022/07/20 19:02:20;;;;;;;11.60;5.10;;;;;;;32.70;25.22;97679.91;8416169;28;20250;-75
2022/07/20 19:06:23;;;;;;;13.83;5.50;;;;;;;32.58;25.88;97683.47;8415902;28;20234;-75
2022/07/20 19:10:26;;;;;;;11.73;6.23;;;;;;;32.49;26.64;97688.25;8416013;28;20260;-76